Time;durP1;ratioP1;P1;durP2;ratioP2;P2;SDS_P1;SDS_P2;PMS_P1;PMS_P2;Temp;Humidity;BMP_temperature;BMP_pressure;BME280_temperature;BME280_humidity;BME280_pressure;Samples;Min_cycle;Max_cycle;Signal;HPM_P1;HPM_P2
2023/01/15 00:00:59;;;;;;;1.57;1.47;;;;;;;6.87;100.00;95577.94;4953863;28;101969;-60
2023/01/15 00:03:30;;;;;;;1.50;1.40;;;;;;;7.04;100.00;95574.16;4953491;28;105894;-60
2023/01/15 00:06:01;;;;;;;1.47;1.37;;;;;;;7.08;100.00;95579.72;4953840;28;105444;-60
2023/01/15 00:08:28;;;;;;;1.43;1.30;;;;;;;7.00;100.00;95577.53;4953444;28;101991;-60
2023/01/15 00:10:56;;;;;;;1.43;1.30;;;;;;;7.10;100.00;95572.38;4953355;28;104125;-60
2023/01/15 00:13:24;;;;;;;1.10;1.10;;;;;;;7.17;100.00;95573.78;4953123;28;104194;-60
2023/01/15 00:15:53;;;;;;;1.57;1.27;;;;;;;7.10;100.00;95567.09;4953549;28;101808;-60
2023/01/15 00:18:19;;;;;;;2.00;1.20;;;;;;;7.07;100.00;95567.56;4953674;28;103872;-60
2023/01/15 00:20:49;;;;;;;1.77;1.50;;;;;;;7.07;100.00;95554.34;4956209;28;103077;-60
2023/01/15 00:27:37;;;;;;;1.20;1.10;;;;;;;7.18;100.00;95548.13;4952566;28;103772;-60
2023/01/15 00:28:48;;;;;;;1.40;1.30;;;;;;;7.22;100.00;95549.22;4951495;28;102085;-60
2023/01/15 00:31:16;;;;;;;1.30;1.20;;;;;;;7.19;100.00;95528.59;4934923;28;104823;-60
2023/01/15 00:33:44;;;;;;;1.50;1.40;;;;;;;7.07;100.00;95530.56;4951211;28;105833;-60
2023/01/15 00:36:13;;;;;;;2.37;1.97;;;;;;;6.91;100.00;95523.53;4950719;28;102382;-60
2023/01/15 00:38:40;;;;;;;2.87;2.50;;;;;;;6.70;100.00;95514.56;4950819;28;105679;-60
2023/01/15 00:41:07;;;;;;;4.47;2.53;;;;;;;6.46;100.00;95518.53;4953921;28;105359;-60
2023/01/15 00:43:35;;;;;;;3.77;2.20;;;;;;;6.20;100.00;95503.41;4951098;28;104773;-60
2023/01/15 00:46:04;;;;;;;3.53;2.50;;;;;;;6.16;100.00;95507.56;4950196;28;105810;-60
2023/01/15 00:48:31;;;;;;;2.40;2.20;;;;;;;6.22;100.00;95503.94;4951222;28;101847;-60
2023/01/15 00:50:59;;;;;;;3.57;2.57;;;;;;;6.08;100.00;95509.81;4950942;28;105408;-60
2023/01/15 00:53:27;;;;;;;2.87;2.57;;;;;;;5.97;100.00;95498.34;4968385;28;102578;-60
2023/01/15 00:55:54;;;;;;;5.77;2.67;;;;;;;5.84;100.00;95488.13;4952578;28;101795;-60
2023/01/15 00:58:21;;;;;;;2.97;2.33;;;;;;;5.91;100.00;95487.97;4952582;28;103663;-60
2023/01/15 01:00:54;;;;;;;2.47;2.07;;;;;;;5.94;100.00;95482.22;4952114;28;105429;-60
2023/01/15 01:03:21;;;;;;;3.10;2.47;;;;;;;5.90;100.00;95475.81;4956071;28;101856;-60
2023/01/15 01:05:48;;;;;;;2.50;1.93;;;;;;;5.88;100.00;95467.31;4952149;28;105097;-60
2023/01/15 01:08:15;;;;;;;2.90;2.30;;;;;;;5.85;100.00;95462.56;4953195;28;101895;-60
2023/01/15 01:10:43;;;;;;;2.30;2.10;;;;;;;5.79;100.00;95469.56;4953257;28;104768;-60
2023/01/15 01:13:12;;;;;;;2.80;2.20;;;;;;;5.72;100.00;95465.50;4952074;28;105126;-60
2023/01/15 01:15:39;;;;;;;2.50;2.30;;;;;;;5.70;100.00;95459.66;4971611;28;101955;-60
2023/01/15 01:18:06;;;;;;;2.50;2.10;;;;;;;5.76;100.00;95442.84;4952959;28;105346;-60
2023/01/15 01:20:37;;;;;;;2.50;2.30;;;;;;;5.79;100.00;95448.44;4951630;28;104163;-60
2023/01/15 01:23:06;;;;;;;2.53;2.27;;;;;;;5.82;100.00;95441.91;4952492;28;101794;-60
2023/01/15 01:25:36;;;;;;;4.23;2.50;;;;;;;5.72;100.00;95441.78;4955520;28;105935;-60
2023/01/15 01:28:05;;;;;;;2.13;2.00;;;;;;;5.64;100.00;95442.16;4951792;28;102175;-60
2023/01/15 01:30:31;;;;;;;2.60;2.17;;;;;;;5.59;100.00;95436.81;4952592;28;105473;-60
2023/01/15 01:32:58;;;;;;;2.40;2.20;;;;;;;5.68;100.00;95430.88;4952232;28;104405;-60
2023/01/15 01:35:25;;;;;;;2.90;2.20;;;;;;;5.65;100.00;95434.03;4951909;28;101904;-60
2023/01/15 01:37:52;;;;;;;3.20;2.20;;;;;;;5.72;100.00;95432.00;4952657;28;105526;-60
2023/01/15 01:40:20;;;;;;;2.47;2.27;;;;;;;5.75;100.00;95430.72;4952016;28;105359;-60
2023/01/15 01:42:48;;;;;;;2.40;2.20;;;;;;;5.77;100.00;95428.63;4952172;28;102074;-60
2023/01/15 01:45:24;;;;;;;2.40;2.07;;;;;;;5.78;100.00;95435.53;4952255;28;105576;-60
2023/01/15 01:47:53;;;;;;;2.10;1.90;;;;;;;5.83;100.00;95433.00;4955283;28;105775;-60
2023/01/15 01:50:20;;;;;;;2.50;2.30;;;;;;;5.90;100.00;95446.78;4952373;28;104939;-60
2023/01/15 01:52:54;;;;;;;1.53;1.43;;;;;;;6.08;100.00;95436.75;4951444;28;104581;-60
2023/01/15 01:55:24;;;;;;;1.70;1.60;;;;;;;6.24;100.00;95435.88;4952247;28;102083;-60
2023/01/15 01:57:52;;;;;;;1.67;1.57;;;;;;;6.21;100.00;95435.59;4952566;28;105193;-60
2023/01/15 02:00:23;;;;;;;2.30;1.57;;;;;;;6.27;100.00;95430.09;4951885;28;105390;-60
2023/01/15 02:02:54;;;;;;;1.50;1.40;;;;;;;6.66;100.00;95422.88;4952332;28;101979;-60
2023/01/15 02:05:28;;;;;;;1.30;1.20;;;;;;;7.05;100.00;95413.72;4971580;28;102989;-60
2023/01/15 02:07:55;;;;;;;3.37;1.43;;;;;;;7.21;100.00;95410.94;4972873;28;102577;-60
2023/01/15 02:10:23;;;;;;;1.20;1.10;;;;;;;7.36;100.00;95405.75;4958892;28;101863;-60
2023/01/15 02:12:57;;;;;;;1.30;1.20;;;;;;;7.67;100.00;95399.63;4954498;28;105000;-60
2023/01/15 02:15:33;;;;;;;0.93;0.93;;;;;;;7.74;100.00;95407.34;4955193;28;101923;-60
2023/01/15 02:18:10;;;;;;;1.10;1.10;;;;;;;7.90;100.00;95390.50;4955478;28;104076;-60
2023/01/15 02:20:42;;;;;;;0.90;0.90;;;;;;;7.83;100.00;95392.56;4954703;28;105700;-60
2023/01/15 02:23:23;;;;;;;1.20;1.10;;;;;;;7.55;100.00;95385.81;4955107;28;102348;-60
2023/01/15 02:26:17;;;;;;;1.20;1.10;;;;;;;7.27;100.00;95382.69;4955043;28;104618;-60
2023/01/15 02:28:48;;;;;;;1.60;1.50;;;;;;;7.40;100.00;95372.47;4954903;28;105070;-60
2023/01/15 02:31:24;;;;;;;1.10;1.10;;;;;;;7.47;100.00;95373.03;4955249;28;101843;-60
2023/01/15 02:34:00;;;;;;;1.50;1.40;;;;;;;7.44;100.00;95368.28;4958102;28;104961;-60
2023/01/15 02:36:33;;;;;;;1.30;1.20;;;;;;;7.31;100.00;95347.56;4954711;28;101904;-60
2023/01/15 02:39:06;;;;;;;1.50;1.40;;;;;;;7.25;100.00;95331.94;4955377;28;104990;-60
2023/01/15 02:41:36;;;;;;;1.40;1.30;;;;;;;7.15;100.00;95339.78;4954546;28;105346;-60
2023/01/15 02:44:08;;;;;;;2.53;1.40;;;;;;;7.06;100.00;95328.88;4972744;28;102055;-60
2023/01/15 02:46:39;;;;;;;1.40;1.30;;;;;;;7.06;100.00;95323.59;4955203;28;105013;-60
2023/01/15 02:49:15;;;;;;;4.93;2.33;;;;;;;7.08;100.00;95320.69;4954755;28;105006;-60
2023/01/15 02:51:49;;;;;;;0.97;0.97;;;;;;;7.63;100.00;95299.88;4954758;28;101857;-60
2023/01/15 02:54:24;;;;;;;1.17;1.07;;;;;;;7.70;100.00;95303.06;4957613;28;102706;-60
2023/01/15 02:56:53;;;;;;;0.80;0.80;;;;;;;8.26;100.00;95286.31;4972152;28;101714;-60
2023/01/15 02:59:27;;;;;;;1.00;0.90;;;;;;;8.21;100.00;95283.66;4955368;28;105348;-60
2023/01/15 03:01:59;;;;;;;0.87;0.87;;;;;;;8.43;100.00;95281.56;4954583;28;105971;-60
2023/01/15 03:04:32;;;;;;;0.70;0.70;;;;;;;8.75;100.00;95274.16;4954841;28;101824;-60
2023/01/15 03:07:06;;;;;;;1.73;0.70;;;;;;;8.87;93.70;95264.91;4954311;28;105588;-60
2023/01/15 03:09:36;;;;;;;0.87;0.87;;;;;;;8.98;90.17;95268.31;4938221;28;105042;-60
2023/01/15 03:12:08;;;;;;;0.60;0.60;;;;;;;9.06;86.59;95260.63;4972288;28;101780;-60
2023/01/15 03:14:49;;;;;;;0.80;0.80;;;;;;;9.14;83.94;95253.97;4939434;28;104962;-60
2023/01/15 03:17:22;;;;;;;0.67;0.67;;;;;;;9.18;81.88;95257.69;4957591;28;105132;-60
2023/01/15 03:19:56;;;;;;;0.67;0.67;;;;;;;9.24;79.91;95251.31;4954627;28;105280;-60
2023/01/15 03:22:28;;;;;;;0.70;0.70;;;;;;;9.21;81.44;95249.22;4954049;28;104386;-60
2023/01/15 03:25:01;;;;;;;0.80;0.80;;;;;;;9.16;84.04;95246.56;4955225;28;102400;-60
2023/01/15 03:27:32;;;;;;;0.70;0.70;;;;;;;9.12;83.50;95237.53;4955099;28;104613;-60
2023/01/15 03:30:04;;;;;;;0.60;0.60;;;;;;;9.14;86.10;95240.72;4954135;28;105668;-60
2023/01/15 03:32:33;;;;;;;0.70;0.70;;;;;;;9.06;86.97;95235.97;4972180;28;101797;-60
2023/01/15 03:35:02;;;;;;;0.80;0.80;;;;;;;9.09;84.69;95230.91;4938415;28;104869;-60
2023/01/15 03:37:31;;;;;;;0.80;0.80;;;;;;;9.10;86.29;95237.03;4954106;28;105105;-60
2023/01/15 03:40:00;;;;;;;0.80;0.80;;;;;;;9.02;87.77;95240.22;4958101;28;101840;-60
2023/01/15 03:42:45;;;;;;;1.27;0.73;;;;;;;9.18;80.56;95224.00;4953786;28;106332;-60
2023/01/15 03:45:20;;;;;;;0.70;0.70;;;;;;;9.10;81.09;95226.41;4954688;28;102155;-60
2023/01/15 03:47:59;;;;;;;0.87;0.80;;;;;;;9.14;78.75;95222.16;4954685;28;105583;-60
2023/01/15 03:50:38;;;;;;;0.80;0.80;;;;;;;9.17;78.44;95222.41;4953927;28;105693;-60
2023/01/15 03:53:20;;;;;;;0.77;0.77;;;;;;;9.35;74.76;95215.72;4954196;28;102484;-60
2023/01/15 03:56:04;;;;;;;0.70;0.70;;;;;;;9.31;78.18;95214.66;4954063;28;105710;-60
2023/01/15 03:58:41;;;;;;;1.17;0.63;;;;;;;9.26;79.74;95201.44;4953614;28;104879;-60
2023/01/15 04:01:20;;;;;;;0.77;0.77;;;;;;;9.20;79.92;95210.47;4954146;28;101785;-60
2023/01/15 04:03:50;;;;;;;0.80;0.80;;;;;;;9.25;84.17;95213.09;4956708;28;104946;-60
2023/01/15 04:06:19;;;;;;;0.70;0.70;;;;;;;9.23;80.11;95207.28;4953982;28;101931;-60
2023/01/15 04:08:47;;;;;;;0.60;0.60;;;;;;;9.32;80.34;95203.03;4953934;28;105696;-60
2023/01/15 04:11:23;;;;;;;0.77;0.77;;;;;;;9.29;84.95;95200.91;4953433;28;104141;-60
2023/01/15 04:13:53;;;;;;;0.70;0.70;;;;;;;9.55;76.08;95197.09;4953637;28;101812;-60
2023/01/15 04:16:34;;;;;;;0.60;0.60;;;;;;;9.61;76.05;95202.09;4953645;28;103702;-60
2023/01/15 04:19:01;;;;;;;0.60;0.60;;;;;;;9.66;78.08;95195.97;4953399;28;105110;-60
2023/01/15 04:21:29;;;;;;;0.77;0.77;;;;;;;9.61;78.79;95193.34;4953826;28;101818;-60
2023/01/15 04:23:57;;;;;;;0.80;0.80;;;;;;;9.53;80.74;95194.69;4953851;28;105197;-60
2023/01/15 04:26:25;;;;;;;0.87;0.60;;;;;;;9.63;79.99;95199.97;4974153;28;102704;-60
2023/01/15 04:28:51;;;;;;;0.70;0.70;;;;;;;9.56;82.19;95193.34;4970858;28;102325;-60
2023/01/15 04:31:18;;;;;;;1.07;1.03;;;;;;;9.52;83.53;95187.81;4953050;28;105849;-60
2023/01/15 04:33:47;;;;;;;0.60;0.60;;;;;;;9.51;81.30;95183.56;4953552;28;102235;-60
2023/01/15 04:36:14;;;;;;;0.87;0.83;;;;;;;9.48;81.52;95184.09;4953172;28;104817;-59
2023/01/15 04:38:41;;;;;;;0.70;0.70;;;;;;;9.34;92.05;95182.31;4970762;28;102790;-59
2023/01/15 04:44:06;;;;;;;1.27;0.93;;;;;;;8.98;100.00;95188.78;4953123;28;105493;-59
2023/01/15 04:46:35;;;;;;;1.00;1.00;;;;;;;8.81;100.00;95172.38;4953336;28;104926;-60
2023/01/15 04:49:04;;;;;;;1.10;1.00;;;;;;;8.61;100.00;95170.56;4956789;28;101958;-60
2023/01/15 04:51:30;;;;;;;1.00;1.00;;;;;;;8.43;100.00;95157.06;4952698;28;105737;-60
2023/01/15 04:54:00;;;;;;;0.90;0.90;;;;;;;8.39;100.00;95153.38;4953213;28;102055;-60
2023/01/15 04:56:28;;;;;;;0.87;0.87;;;;;;;8.28;100.00;95146.50;4953383;28;106361;-60
2023/01/15 04:58:54;;;;;;;1.00;1.00;;;;;;;8.08;100.00;95151.78;4952783;28;105332;-60
2023/01/15 05:01:21;;;;;;;0.80;0.80;;;;;;;7.92;100.00;95163.41;4953484;28;102311;-60
2023/01/15 05:03:49;;;;;;;1.13;0.97;;;;;;;7.81;100.00;95169.75;4971314;28;102968;-60
2023/01/15 05:06:17;;;;;;;0.80;0.80;;;;;;;7.56;100.00;95161.72;4952626;28;105490;-60
2023/01/15 05:08:44;;;;;;;1.60;0.97;;;;;;;7.53;100.00;95165.69;4956490;28;102258;-59
2023/01/15 05:11:12;;;;;;;0.90;0.90;;;;;;;7.57;100.00;95165.97;4952815;28;105471;-60
2023/01/15 05:13:40;;;;;;;1.00;1.00;;;;;;;7.63;100.00;95162.31;4953170;28;101958;-59
2023/01/15 05:16:09;;;;;;;1.30;1.20;;;;;;;7.62;100.00;95150.91;4953058;28;104921;-59
2023/01/15 05:18:36;;;;;;;1.23;1.13;;;;;;;7.62;100.00;95142.16;4952777;28;105295;-59
2023/01/15 05:21:05;;;;;;;1.00;1.00;;;;;;;7.62;100.00;95144.81;4970793;28;101818;-59
2023/01/15 05:23:33;;;;;;;2.13;1.33;;;;;;;7.58;100.00;95143.78;4952702;28;104800;-59
2023/01/15 05:26:04;;;;;;;1.00;1.00;;;;;;;7.53;100.00;95151.69;4952530;28;104380;-59
2023/01/15 05:28:31;;;;;;;1.00;1.00;;;;;;;7.32;100.00;95152.69;4953454;28;101813;-59
2023/01/15 05:30:57;;;;;;;1.33;1.23;;;;;;;7.23;100.00;95149.75;4955535;28;104155;-59
2023/01/15 05:33:24;;;;;;;1.30;1.10;;;;;;;7.27;100.00;95145.53;4953140;28;101861;-59
2023/01/15 05:35:51;;;;;;;1.23;1.13;;;;;;;7.29;100.00;95135.50;4952501;28;104307;-59
2023/01/15 05:38:18;;;;;;;1.30;1.10;;;;;;;7.29;100.00;95132.03;4952093;28;103934;-59
2023/01/15 05:40:47;;;;;;;1.57;1.10;;;;;;;7.28;100.00;95130.47;4954574;28;102429;-59
2023/01/15 05:43:14;;;;;;;1.17;1.10;;;;;;;7.30;100.00;95145.00;4956501;28;105736;-59
2023/01/15 05:45:41;;;;;;;1.00;1.00;;;;;;;7.26;100.00;95151.09;4955642;28;105065;-59
2023/01/15 05:48:08;;;;;;;1.87;0.97;;;;;;;7.25;100.00;95147.63;4956203;28;101898;-60
2023/01/15 05:50:34;;;;;;;1.83;1.30;;;;;;;7.20;100.00;95157.41;4956214;28;104851;-59
2023/01/15 05:53:02;;;;;;;1.50;1.40;;;;;;;7.23;100.00;95155.03;4958938;28;105855;-59
2023/01/15 05:55:29;;;;;;;1.60;1.50;;;;;;;7.22;100.00;95168.50;4973972;28;102561;-60
2023/01/15 05:57:58;;;;;;;1.50;1.40;;;;;;;7.26;100.00;95165.06;4955526;28;105613;-60
2023/01/15 06:00:25;;;;;;;1.40;1.30;;;;;;;7.29;100.00;95169.06;4955836;28;101950;-60
2023/01/15 06:02:53;;;;;;;1.50;1.40;;;;;;;7.26;100.00;95164.31;4956012;28;105031;-60
2023/01/15 06:05:20;;;;;;;1.90;1.70;;;;;;;7.21;100.00;95167.69;4955280;28;104988;-60
2023/01/15 06:07:51;;;;;;;7.93;5.57;;;;;;;7.14;100.00;95174.31;4955749;28;102158;-59
2023/01/15 06:10:19;;;;;;;9.03;5.63;;;;;;;7.15;100.00;95170.59;4955953;28;105326;-60
2023/01/15 06:12:46;;;;;;;5.50;3.73;;;;;;;7.10;100.00;95175.88;4954987;28;105613;-60
2023/01/15 06:15:16;;;;;;;6.07;4.40;;;;;;;7.03;100.00;95183.25;4959341;28;101760;-60
2023/01/15 06:17:43;;;;;;;4.33;2.90;;;;;;;7.05;100.00;95183.78;4955224;28;105534;-60
2023/01/15 06:20:12;;;;;;;3.33;2.87;;;;;;;7.03;100.00;95181.38;4955824;28;101986;-60
2023/01/15 06:22:40;;;;;;;27.07;15.00;;;;;;;7.01;100.00;95185.31;4955480;28;103654;-59
2023/01/15 06:25:08;;;;;;;42.27;24.43;;;;;;;7.01;100.00;95180.03;4954225;28;105519;-60
2023/01/15 06:27:35;;;;;;;14.20;9.07;;;;;;;6.98;100.00;95173.41;4954945;28;101956;-60
2023/01/15 06:30:02;;;;;;;5.50;4.30;;;;;;;6.99;100.00;95182.16;4956036;28;105211;-59
2023/01/15 06:32:30;;;;;;;3.73;3.30;;;;;;;6.98;100.00;95178.72;4955063;28;103058;-60
2023/01/15 06:34:58;;;;;;;3.03;2.73;;;;;;;6.94;100.00;95182.13;4955447;28;101776;-59
2023/01/15 06:37:25;;;;;;;2.43;1.70;;;;;;;7.03;100.00;95185.88;4954342;28;105215;-59
2023/01/15 06:39:52;;;;;;;2.30;2.10;;;;;;;7.08;100.00;95180.59;4952526;28;102519;-59
2023/01/15 06:47:51;;;;;;;1.73;1.63;;;;;;;7.03;100.00;95199.09;4952107;28;102435;-60
2023/01/15 06:50:17;;;;;;;1.30;1.20;;;;;;;7.13;100.00;95197.28;4951642;28;103962;-59
2023/01/15 06:52:46;;;;;;;1.43;1.33;;;;;;;7.25;100.00;95200.50;4951097;28;105551;-60
2023/01/15 06:55:13;;;;;;;0.97;0.97;;;;;;;7.55;100.00;95202.47;4950323;28;101811;-59
2023/01/15 06:57:40;;;;;;;1.87;1.77;;;;;;;7.65;100.00;95195.38;4951723;28;105072;-60
2023/01/15 07:00:08;;;;;;;3.70;3.27;;;;;;;7.65;100.00;95191.94;4955033;28;101910;-60
2023/01/15 07:02:36;;;;;;;1.43;1.33;;;;;;;7.61;100.00;95196.13;4952986;28;102959;-59
2023/01/15 07:05:06;;;;;;;1.70;1.60;;;;;;;7.50;100.00;95186.59;4951206;28;105138;-60
2023/01/15 07:07:33;;;;;;;2.10;1.70;;;;;;;7.50;100.00;95194.53;4951719;28;101906;-60
2023/01/15 07:10:00;;;;;;;2.17;1.63;;;;;;;7.47;100.00;95198.47;4951705;28;103735;-60
2023/01/15 07:12:29;;;;;;;2.23;1.97;;;;;;;7.32;100.00;95200.28;4950773;28;105739;-59
2023/01/15 07:14:57;;;;;;;4.83;2.50;;;;;;;7.20;100.00;95203.13;4953305;28;101691;-60
2023/01/15 07:17:25;;;;;;;4.60;3.80;;;;;;;7.04;100.00;95216.53;4951145;28;105303;-59
2023/01/15 07:19:52;;;;;;;6.93;4.00;;;;;;;6.95;100.00;95226.00;4954102;28;103821;-60
2023/01/15 07:22:22;;;;;;;6.33;4.03;;;;;;;6.86;100.00;95235.44;4951085;28;103385;-60
2023/01/15 07:24:49;;;;;;;4.80;3.80;;;;;;;6.91;100.00;95246.06;4950206;28;104671;-60
2023/01/15 07:27:17;;;;;;;4.73;3.80;;;;;;;6.89;100.00;95254.25;4950974;28;101905;-60
2023/01/15 07:29:47;;;;;;;4.60;3.70;;;;;;;6.90;100.00;95239.97;4950876;28;105574;-59
2023/01/15 07:32:14;;;;;;;3.33;2.90;;;;;;;6.93;100.00;95226.25;4950314;28;105124;-59
2023/01/15 07:34:41;;;;;;;2.00;1.90;;;;;;;6.94;100.00;95227.88;4950780;28;101716;-59
2023/01/15 07:37:08;;;;;;;1.70;1.60;;;;;;;6.75;100.00;95218.75;4950561;28;105259;-60
2023/01/15 07:39:37;;;;;;;1.90;1.80;;;;;;;6.84;100.00;95213.78;4950240;28;105010;-60
2023/01/15 07:50:21;;;;;;;11.63;8.50;;;;;;;6.80;100.00;95160.66;4950488;28;105260;-59
2023/01/15 07:52:48;;;;;;;5.47;4.60;;;;;;;6.94;100.00;95171.56;4951070;28;102544;-60
2023/01/15 07:55:16;;;;;;;5.57;4.20;;;;;;;6.96;100.00;95185.31;4950500;28;101893;-60
2023/01/15 07:57:44;;;;;;;3.30;2.40;;;;;;;6.88;100.00;95209.59;4950213;28;104875;-60
2023/01/15 08:00:12;;;;;;;3.00;2.43;;;;;;;6.70;100.00;95223.22;4949784;28;104291;-60
2023/01/15 08:02:43;;;;;;;2.70;2.40;;;;;;;6.81;100.00;95214.31;4949619;28;102363;-60
2023/01/15 08:05:11;;;;;;;2.97;2.30;;;;;;;6.87;100.00;95203.50;4953254;28;105258;-60
2023/01/15 08:07:38;;;;;;;3.17;2.70;;;;;;;6.95;100.00;95203.03;4950011;28;101989;-60
2023/01/15 08:10:06;;;;;;;2.97;2.67;;;;;;;7.03;100.00;95213.09;4950040;28;104924;-59
2023/01/15 08:15:21;;;;;;;3.17;2.87;;;;;;;7.05;100.00;95202.28;4950522;28;101900;-60
2023/01/15 08:17:50;;;;;;;4.70;4.07;;;;;;;7.11;100.00;95198.59;4950063;28;105139;-59
2023/01/15 08:20:19;;;;;;;3.60;3.30;;;;;;;7.18;100.00;95202.59;4949804;28;105099;-59
2023/01/15 08:22:48;;;;;;;4.00;3.23;;;;;;;7.13;100.00;95199.94;4950606;28;101860;-59
2023/01/15 08:25:16;;;;;;;4.10;3.27;;;;;;;7.11;100.00;95209.16;4949835;28;103776;-60
2023/01/15 08:27:47;;;;;;;4.67;3.90;;;;;;;7.01;100.00;95215.22;4952812;28;103880;-60
2023/01/15 08:30:16;;;;;;;9.27;8.23;;;;;;;7.09;100.00;95219.22;4950073;28;106319;-60
2023/01/15 08:32:43;;;;;;;6.03;5.43;;;;;;;7.20;100.00;95211.06;4949370;28;104979;-60
2023/01/15 08:35:12;;;;;;;5.53;5.03;;;;;;;7.29;100.00;95206.88;4945125;28;101846;-60
2023/01/15 08:37:39;;;;;;;4.97;4.53;;;;;;;7.38;100.00;95204.53;4970754;28;102665;-60
2023/01/15 08:40:08;;;;;;;6.97;3.47;;;;;;;7.38;100.00;95200.06;4970123;28;102510;-60
2023/01/15 08:42:35;;;;;;;5.37;4.87;;;;;;;7.40;100.00;95208.50;4953087;28;101970;-60
2023/01/15 08:45:05;;;;;;;5.07;4.57;;;;;;;7.45;100.00;95210.38;4970129;28;102350;-63
2023/01/15 08:47:32;;;;;;;4.50;4.10;;;;;;;7.42;100.00;95216.19;4952304;28;106075;-63
2023/01/15 08:49:59;;;;;;;4.53;4.10;;;;;;;7.55;100.00;95215.69;4973651;28;101893;-61
2023/01/15 08:52:27;;;;;;;5.10;4.60;;;;;;;7.61;100.00;95214.66;4968559;28;102655;-70
2023/01/15 08:55:35;;;;;;;4.97;3.73;;;;;;;7.68;100.00;95220.53;4953247;28;101845;-63
2023/01/15 08:58:04;;;;;;;3.77;3.33;;;;;;;7.97;100.00;95211.81;4952418;28;103906;-63
2023/01/15 09:00:33;;;;;;;5.07;2.80;;;;;;;8.19;100.00;95196.50;4969307;28;102584;-62
2023/01/15 09:03:49;;;;;;;3.50;2.60;;;;;;;8.22;100.00;95171.38;4969039;28;101891;-62
2023/01/15 09:06:17;;;;;;;9.93;6.33;;;;;;;8.39;100.00;95174.59;4952719;28;105192;-63
2023/01/15 09:08:44;;;;;;;34.40;20.20;;;;;;;8.49;100.00;95174.53;4935792;28;106581;-63
2023/01/15 09:11:11;;;;;;;5.07;3.57;;;;;;;8.51;100.00;95172.44;4955103;28;101808;-63
2023/01/15 09:13:40;;;;;;;9.93;7.33;;;;;;;8.60;100.00;95163.69;4952288;28;104267;-63
2023/01/15 09:16:10;;;;;;;2.43;2.23;;;;;;;8.70;100.00;95149.63;4952869;28;102058;-63
2023/01/15 09:18:38;;;;;;;1.63;1.20;;;;;;;8.82;100.00;95127.06;4952597;28;105439;-63
2023/01/15 09:21:07;;;;;;;1.30;1.20;;;;;;;8.95;100.00;95123.06;4952173;28;105760;-63
2023/01/15 09:23:36;;;;;;;1.53;1.20;;;;;;;9.00;100.00;95112.44;4968167;28;102413;-63
2023/01/15 09:26:06;;;;;;;1.37;1.27;;;;;;;9.04;100.00;95108.16;4952905;28;105225;-63
2023/01/15 09:28:58;;;;;;;2.03;1.53;;;;;;;9.09;100.00;95119.53;4969484;28;102601;-63
2023/01/15 09:31:30;;;;;;;2.10;1.70;;;;;;;9.12;100.00;95105.75;4952469;28;101780;-63
2023/01/15 09:34:00;;;;;;;1.90;1.63;;;;;;;9.13;100.00;95122.44;4955009;28;103615;-63
2023/01/15 09:36:30;;;;;;;4.80;2.70;;;;;;;9.09;100.00;95108.13;4969750;28;101815;-63
2023/01/15 09:38:58;;;;;;;4.40;3.17;;;;;;;8.76;100.00;95128.16;4970102;28;102301;-63
2023/01/15 09:44:28;;;;;;;5.17;2.50;;;;;;;8.88;100.00;95082.78;4938325;28;101847;-63
2023/01/15 09:47:08;;;;;;;2.67;2.30;;;;;;;8.77;100.00;95060.03;4970270;28;102485;-63
2023/01/15 09:49:51;;;;;;;6.43;4.30;;;;;;;8.77;100.00;95068.75;4951799;28;103696;-63
2023/01/15 09:52:30;;;;;;;4.33;3.33;;;;;;;8.83;100.00;95075.63;4951720;28;102223;-63
2023/01/15 09:55:15;;;;;;;4.60;3.60;;;;;;;8.92;100.00;95067.91;4970167;28;102841;-63
2023/01/15 09:57:45;;;;;;;4.70;4.07;;;;;;;8.95;100.00;95072.69;4954926;28;104002;-63
2023/01/15 10:00:19;;;;;;;4.03;3.50;;;;;;;8.98;100.00;95061.50;4936365;28;105016;-63
2023/01/15 10:02:53;;;;;;;4.60;3.17;;;;;;;8.90;100.00;95078.00;4969461;28;102948;-63
2023/01/15 10:05:23;;;;;;;5.30;3.53;;;;;;;8.97;100.00;95065.25;4969929;28;102207;-63
2023/01/15 10:07:59;;;;;;;4.53;3.30;;;;;;;9.14;100.00;95052.44;4969837;28;102283;-63
2023/01/15 10:10:32;;;;;;;2.40;2.20;;;;;;;9.47;100.00;95046.38;4969228;28;102791;-63
2023/01/15 10:13:08;;;;;;;1.93;1.80;;;;;;;9.56;100.00;95034.94;4951961;28;101759;-63
2023/01/15 10:15:44;;;;;;;2.47;2.13;;;;;;;9.60;100.00;95035.94;4969922;28;102375;-63
2023/01/15 10:18:18;;;;;;;2.70;2.00;;;;;;;9.64;100.00;95030.88;4951374;28;105539;-63
2023/01/15 10:21:06;;;;;;;2.23;1.90;;;;;;;9.71;100.00;95034.81;4955369;28;101806;-63
2023/01/15 10:23:41;;;;;;;2.10;1.90;;;;;;;9.74;100.00;95058.16;4959121;28;102590;-63
2023/01/15 10:26:17;;;;;;;1.87;1.67;;;;;;;9.91;96.43;95065.72;4969708;28;102021;-63
2023/01/15 10:28:58;;;;;;;2.03;1.70;;;;;;;10.00;97.91;95051.56;4955129;28;103579;-63
2023/01/15 10:31:35;;;;;;;1.90;1.70;;;;;;;10.10;94.06;95048.06;4954761;28;105661;-63
2023/01/15 10:34:27;;;;;;;1.70;1.60;;;;;;;10.21;91.02;95062.84;4954920;28;102058;-63
2023/01/15 10:37:00;;;;;;;1.30;1.20;;;;;;;10.27;89.46;95067.03;4972555;28;102308;-63
2023/01/15 10:39:34;;;;;;;1.47;1.37;;;;;;;10.31;86.90;95070.72;4972017;28;103082;-63
2023/01/15 10:42:10;;;;;;;1.50;1.40;;;;;;;10.35;85.22;95080.50;4954970;28;102420;-63
2023/01/15 10:44:46;;;;;;;1.50;1.40;;;;;;;10.42;80.37;95086.28;4957785;28;105526;-63
2023/01/15 10:47:17;;;;;;;1.30;1.20;;;;;;;10.43;79.01;95084.41;4955966;28;101998;-63
2023/01/15 10:49:48;;;;;;;4.20;2.40;;;;;;;10.53;73.60;95087.75;4954893;28;104799;-63
2023/01/15 10:52:25;;;;;;;2.63;1.20;;;;;;;10.55;75.61;95088.28;4954122;28;103753;-63
2023/01/15 10:54:56;;;;;;;1.83;1.00;;;;;;;10.54;76.10;95093.88;4954689;28;102118;-63
2023/01/15 10:57:36;;;;;;;2.10;1.10;;;;;;;10.48;79.44;95102.97;4954491;28;105284;-63
2023/01/15 11:00:06;;;;;;;1.20;1.10;;;;;;;10.42;81.39;95112.06;4954172;28;104146;-63
2023/01/15 11:02:39;;;;;;;1.37;1.27;;;;;;;10.37;85.43;95101.47;4954750;28;102025;-63
2023/01/15 11:05:14;;;;;;;1.17;1.17;;;;;;;10.27;92.71;95107.69;4954641;28;105761;-63
2023/01/15 11:07:43;;;;;;;1.37;1.20;;;;;;;10.26;91.97;95115.94;4957263;28;103954;-63
2023/01/15 11:10:15;;;;;;;3.90;3.50;;;;;;;10.16;100.00;95163.81;4954725;28;104758;-63
2023/01/15 11:21:42;;;;;;;0.90;0.90;;;;;;;8.72;100.00;95264.13;4971384;28;102996;-63
2023/01/15 11:24:16;;;;;;;0.60;0.60;;;;;;;8.23;100.00;95276.25;4971973;28;101823;-63
2023/01/15 11:26:48;;;;;;;1.03;0.70;;;;;;;7.94;100.00;95288.31;4971868;28;102299;-63
2023/01/15 11:29:21;;;;;;;0.83;0.53;;;;;;;7.73;100.00;95278.72;4974953;28;102670;-63
2023/01/15 11:31:48;;;;;;;0.50;0.50;;;;;;;7.58;100.00;95291.91;4971385;28;102595;-63
2023/01/15 11:34:20;;;;;;;0.40;0.40;;;;;;;7.48;100.00;95295.28;4953702;28;103929;-63
2023/01/15 11:36:49;;;;;;;2.43;2.27;;;;;;;7.34;100.00;95298.66;4949764;28;102293;-63
2023/01/15 11:39:25;;;;;;;1.23;1.23;;;;;;;7.26;100.00;95321.06;4948481;28;104874;-63
2023/01/15 11:53:13;;;;;;;2.47;2.27;;;;;;;7.11;100.00;95373.06;4915013;28;101877;-62
2023/01/15 11:55:40;;;;;;;2.17;2.03;;;;;;;7.08;100.00;95399.97;4911031;28;105808;-62
2023/01/15 11:58:09;;;;;;;1.77;1.67;;;;;;;7.08;100.00;95394.69;4911674;28;101929;-63
2023/01/15 12:00:43;;;;;;;1.40;1.17;;;;;;;7.05;100.00;95429.56;4925722;28;105850;-63
2023/01/15 12:03:17;;;;;;;1.40;1.30;;;;;;;7.03;100.00;95436.97;4909811;28;105250;-63
2023/01/15 12:05:47;;;;;;;1.50;1.40;;;;;;;6.99;100.00;95426.06;4911348;28;102062;-63
2023/01/15 12:08:28;;;;;;;5.77;5.07;;;;;;;6.95;100.00;95469.13;4909515;28;105234;-63
2023/01/15 12:11:04;;;;;;;6.90;5.43;;;;;;;6.89;100.00;95455.09;4914473;28;105859;-63
2023/01/15 12:13:42;;;;;;;1.80;1.70;;;;;;;6.86;100.00;95470.59;4930362;28;101856;-63
2023/01/15 12:16:16;;;;;;;4.27;3.63;;;;;;;6.81;100.00;95508.34;4923152;28;102451;-63
2023/01/15 12:18:49;;;;;;;4.93;3.83;;;;;;;6.75;100.00;95500.63;4928722;28;102118;-63
2023/01/15 12:21:29;;;;;;;4.60;3.60;;;;;;;6.68;100.00;95514.03;4927372;28;103575;-63
2023/01/15 12:24:14;;;;;;;3.80;3.47;;;;;;;6.66;100.00;95520.59;4910803;28;105107;-63
2023/01/15 12:26:58;;;;;;;1.30;1.20;;;;;;;6.64;100.00;95530.59;4913142;28;101945;-63
2023/01/15 12:29:29;;;;;;;15.60;14.03;;;;;;;6.60;100.00;95545.38;4911622;28;103960;-63